sensor_id;sensor_type;location;lat;lon;timestamp;pressure;altitude;pressure_sealevel;temperature;humidity
27643;BME280;15053;48.618;10.024;2023-02-22T00:00:43;94178.41;;;6.83;68.47
27643;BME280;15053;48.618;10.024;2023-02-22T00:05:43;94182.81;;;6.82;68.94
27643;BME280;15053;48.618;10.024;2023-02-22T00:08:13;94177.91;;;6.81;68.93
27643;BME280;15053;48.618;10.024;2023-02-22T00:10:40;94175.56;;;6.84;70.12
27643;BME280;15053;48.618;10.024;2023-02-22T00:13:08;94175.56;;;6.84;69.93
27643;BME280;15053;48.618;10.024;2023-02-22T00:15:36;94172.44;;;6.87;69.83
27643;BME280;15053;48.618;10.024;2023-02-22T00:18:03;94173.22;;;6.88;70.62
27643;BME280;15053;48.618;10.024;2023-02-22T00:20:30;94169.59;;;6.89;70.16
27643;BME280;15053;48.618;10.024;2023-02-22T00:22:56;94171.13;;;6.90;70.61
27643;BME280;15053;48.618;10.024;2023-02-22T00:25:23;94173.47;;;6.91;70.70
27643;BME280;15053;48.618;10.024;2023-02-22T00:27:50;94171.38;;;6.93;69.73
27643;BME280;15053;48.618;10.024;2023-02-22T00:30:23;94178.91;;;6.95;70.18
27643;BME280;15053;48.618;10.024;2023-02-22T00:32:54;94176.03;;;6.96;70.70
27643;BME280;15053;48.618;10.024;2023-02-22T00:35:23;94167.72;;;6.99;70.22
27643;BME280;15053;48.618;10.024;2023-02-22T00:37:53;94162.28;;;7.01;70.97
27643;BME280;15053;48.618;10.024;2023-02-22T00:40:22;94170.00;;;7.06;70.64
27643;BME280;15053;48.618;10.024;2023-02-22T00:42:49;94167.19;;;7.07;70.48
27643;BME280;15053;48.618;10.024;2023-02-22T00:45:20;94168.19;;;7.06;70.42
27643;BME280;15053;48.618;10.024;2023-02-22T00:47:48;94169.78;;;7.02;70.79
27643;BME280;15053;48.618;10.024;2023-02-22T00:50:16;94165.16;;;6.99;70.25
27643;BME280;15053;48.618;10.024;2023-02-22T00:52:43;94169.03;;;6.97;70.25
27643;BME280;15053;48.618;10.024;2023-02-22T00:55:15;94160.50;;;6.96;70.58
27643;BME280;15053;48.618;10.024;2023-02-22T00:57:42;94165.66;;;6.96;70.54
27643;BME280;15053;48.618;10.024;2023-02-22T01:00:15;94164.41;;;6.94;70.38
27643;BME280;15053;48.618;10.024;2023-02-22T01:02:43;94162.84;;;6.88;70.42
27643;BME280;15053;48.618;10.024;2023-02-22T01:05:12;94163.69;;;6.78;70.13
27643;BME280;15053;48.618;10.024;2023-02-22T01:07:39;94154.66;;;6.66;70.30
27643;BME280;15053;48.618;10.024;2023-02-22T01:10:07;94146.66;;;6.62;70.00
27643;BME280;15053;48.618;10.024;2023-02-22T01:12:35;94143.56;;;6.55;70.25
27643;BME280;15053;48.618;10.024;2023-02-22T01:15:05;94147.97;;;6.54;70.28
27643;BME280;15053;48.618;10.024;2023-02-22T01:17:37;94148.50;;;6.51;70.21
27643;BME280;15053;48.618;10.024;2023-02-22T01:20:05;94151.88;;;6.47;70.23
27643;BME280;15053;48.618;10.024;2023-02-22T01:22:35;94146.97;;;6.40;71.15
27643;BME280;15053;48.618;10.024;2023-02-22T01:25:03;94142.09;;;6.34;70.48
27643;BME280;15053;48.618;10.024;2023-02-22T01:27:32;94146.72;;;6.32;71.02
27643;BME280;15053;48.618;10.024;2023-02-22T01:29:59;94143.91;;;6.28;71.53
27643;BME280;15053;48.618;10.024;2023-02-22T01:32:25;94149.09;;;6.28;70.98
27643;BME280;15053;48.618;10.024;2023-02-22T01:34:52;94149.34;;;6.27;71.21
27643;BME280;15053;48.618;10.024;2023-02-22T01:37:19;94145.97;;;6.26;71.22
27643;BME280;15053;48.618;10.024;2023-02-22T01:39:45;94154.00;;;6.25;72.02
27643;BME280;15053;48.618;10.024;2023-02-22T01:42:12;94152.19;;;6.25;71.74
27643;BME280;15053;48.618;10.024;2023-02-22T01:44:38;94149.84;;;6.24;71.81
27643;BME280;15053;48.618;10.024;2023-02-22T01:47:06;94142.09;;;6.24;71.79
27643;BME280;15053;48.618;10.024;2023-02-22T01:49:48;94144.44;;;6.25;72.42
27643;BME280;15053;48.618;10.024;2023-02-22T01:52:18;94145.22;;;6.26;72.05
27643;BME280;15053;48.618;10.024;2023-02-22T01:54:55;94133.31;;;6.25;72.39
27643;BME280;15053;48.618;10.024;2023-02-22T01:57:35;94141.84;;;6.25;72.20
27643;BME280;15053;48.618;10.024;2023-02-22T02:00:09;94144.19;;;6.22;72.16
27643;BME280;15053;48.618;10.024;2023-02-22T02:02:43;94137.22;;;6.17;71.69
27643;BME280;15053;48.618;10.024;2023-02-22T02:05:12;94136.44;;;6.12;71.57
27643;BME280;15053;48.618;10.024;2023-02-22T02:07:39;94127.66;;;6.13;72.42
27643;BME280;15053;48.618;10.024;2023-02-22T02:10:11;94127.13;;;6.16;72.35
27643;BME280;15053;48.618;10.024;2023-02-22T02:12:45;94128.41;;;6.18;72.90
27643;BME280;15053;48.618;10.024;2023-02-22T02:17:48;94122.97;;;6.25;72.86
27643;BME280;15053;48.618;10.024;2023-02-22T02:20:22;94121.94;;;6.31;72.78
27643;BME280;15053;48.618;10.024;2023-02-22T02:23:09;94123.47;;;6.37;72.84
27643;BME280;15053;48.618;10.024;2023-02-22T02:25:58;94111.28;;;6.37;72.07
27643;BME280;15053;48.618;10.024;2023-02-22T02:28:41;94111.53;;;6.41;71.94
27643;BME280;15053;48.618;10.024;2023-02-22T02:31:52;94112.06;;;6.43;72.27
27643;BME280;15053;48.618;10.024;2023-02-22T02:34:39;94089.31;;;6.35;72.17
27643;BME280;15053;48.618;10.024;2023-02-22T02:37:19;94103.31;;;6.34;72.67
27643;BME280;15053;48.618;10.024;2023-02-22T02:40:08;94104.59;;;6.31;72.86
27643;BME280;15053;48.618;10.024;2023-02-22T02:42:52;94092.44;;;6.27;73.12
27643;BME280;15053;48.618;10.024;2023-02-22T02:45:26;94096.06;;;6.31;72.81
27643;BME280;15053;48.618;10.024;2023-02-22T02:47:55;94085.72;;;6.31;73.07
27643;BME280;15053;48.618;10.024;2023-02-22T02:50:33;94085.44;;;6.37;73.26
27643;BME280;15053;48.618;10.024;2023-02-22T02:53:04;94085.44;;;6.42;73.79
27643;BME280;15053;48.618;10.024;2023-02-22T02:55:32;94077.41;;;6.44;73.21
27643;BME280;15053;48.618;10.024;2023-02-22T02:58:06;94087.25;;;6.42;72.67
27643;BME280;15053;48.618;10.024;2023-02-22T03:00:38;94086.22;;;6.38;72.53
27643;BME280;15053;48.618;10.024;2023-02-22T03:08:40;94079.53;;;6.27;73.45
27643;BME280;15053;48.618;10.024;2023-02-22T03:11:27;94070.22;;;6.26;73.45
27643;BME280;15053;48.618;10.024;2023-02-22T03:14:05;94069.97;;;6.27;74.22
27643;BME280;15053;48.618;10.024;2023-02-22T03:17:08;94067.13;;;6.29;74.77
27643;BME280;15053;48.618;10.024;2023-02-22T03:19:36;94075.63;;;6.34;74.90
27643;BME280;15053;48.618;10.024;2023-02-22T03:22:15;94059.34;;;6.34;74.22
27643;BME280;15053;48.618;10.024;2023-02-22T03:24:52;94059.34;;;6.34;74.28
27643;BME280;15053;48.618;10.024;2023-02-22T03:27:31;94059.06;;;6.35;74.68
27643;BME280;15053;48.618;10.024;2023-02-22T03:30:05;94051.81;;;6.37;74.83
27643;BME280;15053;48.618;10.024;2023-02-22T03:32:36;94046.63;;;6.42;74.83
27643;BME280;15053;48.618;10.024;2023-02-22T03:35:05;94045.56;;;6.48;75.19
27643;BME280;15053;48.618;10.024;2023-02-22T03:37:38;94048.13;;;6.53;75.21
27643;BME280;15053;48.618;10.024;2023-02-22T03:40:09;94044.22;;;6.61;76.26
27643;BME280;15053;48.618;10.024;2023-02-22T03:42:49;94044.97;;;6.67;77.18
27643;BME280;15053;48.618;10.024;2023-02-22T03:45:24;94041.78;;;6.80;76.79
27643;BME280;15053;48.618;10.024;2023-02-22T03:48:00;94037.84;;;6.87;77.69
27643;BME280;15053;48.618;10.024;2023-02-22T03:50:34;94040.41;;;6.92;77.22
27643;BME280;15053;48.618;10.024;2023-02-22T03:53:03;94053.34;;;6.97;78.23
27643;BME280;15053;48.618;10.024;2023-02-22T03:55:33;94049.16;;;7.01;78.39
27643;BME280;15053;48.618;10.024;2023-02-22T03:58:05;94046.50;;;7.06;77.68
27643;BME280;15053;48.618;10.024;2023-02-22T04:00:34;94045.75;;;7.06;78.30
27643;BME280;15053;48.618;10.024;2023-02-22T04:03:02;94046.31;;;6.98;77.02
27643;BME280;15053;48.618;10.024;2023-02-22T04:05:28;94042.25;;;6.87;77.28
27643;BME280;15053;48.618;10.024;2023-02-22T04:07:56;94047.19;;;6.83;76.70
27643;BME280;15053;48.618;10.024;2023-02-22T04:10:25;94034.88;;;6.65;76.53
27643;BME280;15053;48.618;10.024;2023-02-22T04:12:51;94052.41;;;6.73;76.67
27643;BME280;15053;48.618;10.024;2023-02-22T04:15:21;94057.59;;;6.73;76.96
27643;BME280;15053;48.618;10.024;2023-02-22T04:17:51;94053.72;;;6.71;76.63
27643;BME280;15053;48.618;10.024;2023-02-22T04:20:18;94052.19;;;6.70;76.59
27643;BME280;15053;48.618;10.024;2023-02-22T04:22:58;94055.81;;;6.69;76.50
27643;BME280;15053;48.618;10.024;2023-02-22T04:25:25;94054.00;;;6.69;76.25
27643;BME280;15053;48.618;10.024;2023-02-22T04:27:51;94051.16;;;6.66;75.76
27643;BME280;15053;48.618;10.024;2023-02-22T04:30:25;94050.41;;;6.60;76.05
27643;BME280;15053;48.618;10.024;2023-02-22T04:32:56;94047.59;;;6.57;76.13
27643;BME280;15053;48.618;10.024;2023-02-22T04:35:22;94031.88;;;6.48;75.85
27643;BME280;15053;48.618;10.024;2023-02-22T04:37:49;94040.13;;;6.50;75.81
27643;BME280;15053;48.618;10.024;2023-02-22T04:40:16;94045.28;;;6.55;76.76
27643;BME280;15053;48.618;10.024;2023-02-22T04:42:43;94043.16;;;6.62;78.19
27643;BME280;15053;48.618;10.024;2023-02-22T04:45:10;94043.38;;;6.71;78.84
27643;BME280;15053;48.618;10.024;2023-02-22T04:47:37;94043.09;;;6.77;79.25
27643;BME280;15053;48.618;10.024;2023-02-22T04:50:06;94033.72;;;6.81;79.66
27643;BME280;15053;48.618;10.024;2023-02-22T04:52:33;94036.84;;;6.83;79.56
27643;BME280;15053;48.618;10.024;2023-02-22T04:55:00;94030.91;;;6.83;79.40
27643;BME280;15053;48.618;10.024;2023-02-22T04:57:26;94033.44;;;6.88;79.60
27643;BME280;15053;48.618;10.024;2023-02-22T04:59:54;94024.66;;;6.89;79.66
27643;BME280;15053;48.618;10.024;2023-02-22T05:02:22;94027.50;;;6.87;79.50
27643;BME280;15053;48.618;10.024;2023-02-22T05:04:49;94027.03;;;6.80;79.08
27643;BME280;15053;48.618;10.024;2023-02-22T05:07:16;94027.59;;;6.72;79.05
27643;BME280;15053;48.618;10.024;2023-02-22T05:09:43;94029.19;;;6.63;78.84
27643;BME280;15053;48.618;10.024;2023-02-22T05:12:09;94028.19;;;6.59;78.33
27643;BME280;15053;48.618;10.024;2023-02-22T05:14:36;94019.44;;;6.50;78.46
27643;BME280;15053;48.618;10.024;2023-02-22T05:17:02;94027.69;;;6.52;78.77
27643;BME280;15053;48.618;10.024;2023-02-22T05:19:29;94027.19;;;6.50;78.42
27643;BME280;15053;48.618;10.024;2023-02-22T05:21:56;94022.28;;;6.48;78.86
27643;BME280;15053;48.618;10.024;2023-02-22T05:24:22;94022.28;;;6.48;78.80
27643;BME280;15053;48.618;10.024;2023-02-22T05:26:49;94019.97;;;6.47;78.99
27643;BME280;15053;48.618;10.024;2023-02-22T05:29:16;94018.94;;;6.43;78.22
27643;BME280;15053;48.618;10.024;2023-02-22T05:31:43;94018.75;;;6.34;78.18
27643;BME280;15053;48.618;10.024;2023-02-22T05:34:09;94015.16;;;6.25;78.14
27643;BME280;15053;48.618;10.024;2023-02-22T05:36:36;94013.91;;;6.18;78.03
27643;BME280;15053;48.618;10.024;2023-02-22T05:39:03;94019.88;;;6.08;77.43
27643;BME280;15053;48.618;10.024;2023-02-22T05:41:30;94010.84;;;6.01;77.68
27643;BME280;15053;48.618;10.024;2023-02-22T05:43:57;94011.13;;;5.94;77.42
27643;BME280;15053;48.618;10.024;2023-02-22T05:46:23;94008.31;;;5.90;77.43
27643;BME280;15053;48.618;10.024;2023-02-22T05:48:50;94013.22;;;5.87;77.50
27643;BME280;15053;48.618;10.024;2023-02-22T05:51:16;94007.78;;;5.83;77.63
27643;BME280;15053;48.618;10.024;2023-02-22T05:53:44;94000.06;;;5.73;77.97
27643;BME280;15053;48.618;10.024;2023-02-22T05:56:11;94009.63;;;5.73;77.83
27643;BME280;15053;48.618;10.024;2023-02-22T05:58:37;94010.13;;;5.70;77.27
27643;BME280;15053;48.618;10.024;2023-02-22T06:01:04;94006.00;;;5.64;77.92
27643;BME280;15053;48.618;10.024;2023-02-22T06:03:30;94010.94;;;5.60;77.97
27643;BME280;15053;48.618;10.024;2023-02-22T06:05:57;94008.88;;;5.57;77.52
27643;BME280;15053;48.618;10.024;2023-02-22T06:08:23;94010.94;;;5.55;77.95
27643;BME280;15053;48.618;10.024;2023-02-22T06:10:50;94011.97;;;5.54;78.23
27643;BME280;15053;48.618;10.024;2023-02-22T06:13:16;94002.69;;;5.53;77.88
27643;BME280;15053;48.618;10.024;2023-02-22T06:15:43;93998.03;;;5.50;78.41
27643;BME280;15053;48.618;10.024;2023-02-22T06:18:09;94000.38;;;5.52;78.28
27643;BME280;15053;48.618;10.024;2023-02-22T06:20:36;94002.44;;;5.55;78.55
27643;BME280;15053;48.618;10.024;2023-02-22T06:23:02;94005.25;;;5.58;78.39
27643;BME280;15053;48.618;10.024;2023-02-22T06:25:29;94003.19;;;5.60;77.88
27643;BME280;15053;48.618;10.024;2023-02-22T06:27:58;94006.81;;;5.59;78.28
27643;BME280;15053;48.618;10.024;2023-02-22T06:30:25;94009.63;;;5.58;77.66
27643;BME280;15053;48.618;10.024;2023-02-22T06:32:52;94002.94;;;5.57;78.10
27643;BME280;15053;48.618;10.024;2023-02-22T06:35:19;93998.03;;;5.55;78.21
27643;BME280;15053;48.618;10.024;2023-02-22T06:37:46;94009.91;;;5.61;78.15
27643;BME280;15053;48.618;10.024;2023-02-22T06:40:14;94006.28;;;5.67;78.74
27643;BME280;15053;48.618;10.024;2023-02-22T06:42:41;94012.19;;;5.73;78.23
27643;BME280;15053;48.618;10.024;2023-02-22T06:45:08;94003.66;;;5.77;78.33
27643;BME280;15053;48.618;10.024;2023-02-22T06:47:38;94010.16;;;5.85;78.33
27643;BME280;15053;48.618;10.024;2023-02-22T06:50:06;94008.31;;;5.90;78.38
27643;BME280;15053;48.618;10.024;2023-02-22T06:52:33;94012.19;;;5.93;78.36
27643;BME280;15053;48.618;10.024;2023-02-22T06:54:59;94017.84;;;6.00;78.04
27643;BME280;15053;48.618;10.024;2023-02-22T06:57:26;94016.00;;;6.06;79.03
27643;BME280;15053;48.618;10.024;2023-02-22T06:59:52;94019.59;;;6.15;79.27
27643;BME280;15053;48.618;10.024;2023-02-22T07:02:19;94019.28;;;6.21;79.45
27643;BME280;15053;48.618;10.024;2023-02-22T07:04:45;94019.50;;;6.35;79.91
27643;BME280;15053;48.618;10.024;2023-02-22T07:07:12;94017.13;;;6.43;81.17
27643;BME280;15053;48.618;10.024;2023-02-22T07:09:38;94025.09;;;6.52;81.69
27643;BME280;15053;48.618;10.024;2023-02-22T07:12:04;94019.16;;;6.51;81.69
27643;BME280;15053;48.618;10.024;2023-02-22T07:14:32;94015.50;;;6.58;82.05
27643;BME280;15053;48.618;10.024;2023-02-22T07:16:58;94022.66;;;6.71;82.74
27643;BME280;15053;48.618;10.024;2023-02-22T07:19:25;94022.63;;;6.81;83.13
27643;BME280;15053;48.618;10.024;2023-02-22T07:21:51;94031.09;;;6.91;83.41
27643;BME280;15053;48.618;10.024;2023-02-22T07:24:25;94034.16;;;6.98;83.48
27643;BME280;15053;48.618;10.024;2023-02-22T07:26:53;94030.19;;;7.06;82.75
27643;BME280;15053;48.618;10.024;2023-02-22T07:29:20;94037.19;;;7.10;83.64
27643;BME280;15053;48.618;10.024;2023-02-22T07:31:47;94040.50;;;7.16;83.52
27643;BME280;15053;48.618;10.024;2023-02-22T07:34:14;94036.06;;;7.22;83.21
27643;BME280;15053;48.618;10.024;2023-02-22T07:36:40;94035.47;;;7.30;83.09
27643;BME280;15053;48.618;10.024;2023-02-22T07:39:07;94021.22;;;7.32;83.09
27643;BME280;15053;48.618;10.024;2023-02-22T07:41:34;94031.28;;;7.34;83.29
27643;BME280;15053;48.618;10.024;2023-02-22T07:44:00;94024.59;;;7.33;82.92
27643;BME280;15053;48.618;10.024;2023-02-22T07:46:27;94019.44;;;7.28;83.34
27643;BME280;15053;48.618;10.024;2023-02-22T07:48:53;94019.66;;;7.31;83.16
27643;BME280;15053;48.618;10.024;2023-02-22T07:51:19;94027.16;;;7.33;83.15
27643;BME280;15053;48.618;10.024;2023-02-22T07:53:47;94027.44;;;7.31;83.98
27643;BME280;15053;48.618;10.024;2023-02-22T07:56:13;94025.84;;;7.35;84.29
27643;BME280;15053;48.618;10.024;2023-02-22T07:58:41;94023.50;;;7.39;84.54
27643;BME280;15053;48.618;10.024;2023-02-22T08:01:07;94021.94;;;7.38;83.88
27643;BME280;15053;48.618;10.024;2023-02-22T08:03:34;94017.81;;;7.37;84.36
27643;BME280;15053;48.618;10.024;2023-02-22T08:06:04;94024.44;;;7.48;84.06
27643;BME280;15053;48.618;10.024;2023-02-22T08:08:31;94022.81;;;7.57;84.01
27643;BME280;15053;48.618;10.024;2023-02-22T08:10:57;94016.53;;;7.63;83.77
27643;BME280;15053;48.618;10.024;2023-02-22T08:13:24;94012.88;;;7.69;84.26
27643;BME280;15053;48.618;10.024;2023-02-22T08:15:52;94012.53;;;7.76;84.38
27643;BME280;15053;48.618;10.024;2023-02-22T08:18:21;94006.47;;;7.85;84.00
27643;BME280;15053;48.618;10.024;2023-02-22T08:20:48;94006.13;;;7.92;84.47
27643;BME280;15053;48.618;10.024;2023-02-22T08:23:17;94010.16;;;8.03;83.45
27643;BME280;15053;48.618;10.024;2023-02-22T08:25:44;94014.97;;;8.14;83.34
27643;BME280;15053;48.618;10.024;2023-02-22T08:28:13;94006.00;;;8.25;83.63
27643;BME280;15053;48.618;10.024;2023-02-22T08:30:41;94008.03;;;8.34;83.23
27643;BME280;15053;48.618;10.024;2023-02-22T08:33:12;94005.81;;;8.46;82.82
27643;BME280;15053;48.618;10.024;2023-02-22T08:35:40;94003.13;;;8.51;82.87
27643;BME280;15053;48.618;10.024;2023-02-22T08:38:13;94010.84;;;8.56;82.04
27643;BME280;15053;48.618;10.024;2023-02-22T08:40:40;94004.75;;;8.65;82.31
27643;BME280;15053;48.618;10.024;2023-02-22T08:43:06;94010.78;;;8.79;81.79
27643;BME280;15053;48.618;10.024;2023-02-22T08:45:33;94002.50;;;8.96;81.56
27643;BME280;15053;48.618;10.024;2023-02-22T08:48:00;94009.44;;;9.19;80.62
27643;BME280;15053;48.618;10.024;2023-02-22T08:50:30;94006.31;;;9.36;80.55
27643;BME280;15053;48.618;10.024;2023-02-22T08:53:00;94002.88;;;9.54;80.00
27643;BME280;15053;48.618;10.024;2023-02-22T08:55:30;94000.78;;;9.70;78.96
27643;BME280;15053;48.618;10.024;2023-02-22T08:57:58;94001.09;;;9.82;78.01
27643;BME280;15053;48.618;10.024;2023-02-22T09:00:26;93997.25;;;9.93;77.37
27643;BME280;15053;48.618;10.024;2023-02-22T09:02:55;93982.22;;;10.03;76.40
27643;BME280;15053;48.618;10.024;2023-02-22T09:05:21;93990.16;;;10.26;75.25
27643;BME280;15053;48.618;10.024;2023-02-22T09:07:48;93988.50;;;10.43;74.37
27643;BME280;15053;48.618;10.024;2023-02-22T09:10:23;93987.28;;;10.63;72.48
27643;BME280;15053;48.618;10.024;2023-02-22T09:12:51;93983.13;;;10.76;70.72
27643;BME280;15053;48.618;10.024;2023-02-22T09:15:18;93988.63;;;10.96;69.06
27643;BME280;15053;48.618;10.024;2023-02-22T09:17:44;93976.63;;;11.09;67.42
27643;BME280;15053;48.618;10.024;2023-02-22T09:20:11;93975.88;;;11.31;65.73
27643;BME280;15053;48.618;10.024;2023-02-22T09:22:38;93973.06;;;11.49;64.26
27643;BME280;15053;48.618;10.024;2023-02-22T09:25:06;93982.94;;;11.61;63.17
27643;BME280;15053;48.618;10.024;2023-02-22T09:27:42;93979.31;;;11.70;61.54
27643;BME280;15053;48.618;10.024;2023-02-22T09:30:20;93971.84;;;11.77;60.42
27643;BME280;15053;48.618;10.024;2023-02-22T09:32:54;93980.63;;;11.90;58.38
27643;BME280;15053;48.618;10.024;2023-02-22T09:35:22;93962.09;;;11.92;57.98
27643;BME280;15053;48.618;10.024;2023-02-22T09:37:56;93972.88;;;12.07;57.65
27643;BME280;15053;48.618;10.024;2023-02-22T09:40:25;93967.41;;;12.26;57.34
27643;BME280;15053;48.618;10.024;2023-02-22T09:43:02;93965.75;;;12.38;57.39
27643;BME280;15053;48.618;10.024;2023-02-22T09:49:03;93965.22;;;12.11;58.14
27643;BME280;15053;48.618;10.024;2023-02-22T09:54:16;93964.59;;;12.05;58.01
27643;BME280;15053;48.618;10.024;2023-02-22T09:56:45;93955.25;;;12.13;58.40
27643;BME280;15053;48.618;10.024;2023-02-22T09:59:17;93954.53;;;12.38;58.75
27643;BME280;15053;48.618;10.024;2023-02-22T10:01:48;93949.50;;;12.67;58.85
27643;BME280;15053;48.618;10.024;2023-02-22T10:04:28;93963.81;;;12.95;58.25
27643;BME280;15053;48.618;10.024;2023-02-22T10:09:40;93951.75;;;13.46;56.47
27643;BME280;15053;48.618;10.024;2023-02-22T10:12:16;93950.81;;;13.59;55.58
27643;BME280;15053;48.618;10.024;2023-02-22T10:15:03;93948.31;;;13.71;53.70
27643;BME280;15053;48.618;10.024;2023-02-22T10:17:54;93946.63;;;13.75;52.38
27643;BME280;15053;48.618;10.024;2023-02-22T10:25:54;93952.25;;;13.94;51.66
27643;BME280;15053;48.618;10.024;2023-02-22T10:28:27;93947.00;;;13.94;52.44
27643;BME280;15053;48.618;10.024;2023-02-22T10:31:03;93937.56;;;14.02;52.40
27643;BME280;15053;48.618;10.024;2023-02-22T10:33:36;93944.03;;;14.04;51.75
27643;BME280;15053;48.618;10.024;2023-02-22T10:36:04;93942.03;;;14.01;51.52
27643;BME280;15053;48.618;10.024;2023-02-22T10:38:33;93942.94;;;14.05;52.32
27643;BME280;15053;48.618;10.024;2023-02-22T10:41:20;93941.31;;;14.22;52.49
27643;BME280;15053;48.618;10.024;2023-02-22T10:43:49;93935.44;;;14.33;53.11
27643;BME280;15053;48.618;10.024;2023-02-22T10:46:17;93930.53;;;14.52;50.21
27643;BME280;15053;48.618;10.024;2023-02-22T10:48:49;93931.75;;;14.75;49.38
27643;BME280;15053;48.618;10.024;2023-02-22T10:51:16;93928.72;;;15.06;48.17
27643;BME280;15053;48.618;10.024;2023-02-22T10:53:44;93921.50;;;15.36;47.25
27643;BME280;15053;48.618;10.024;2023-02-22T10:56:23;93927.91;;;15.47;45.54
27643;BME280;15053;48.618;10.024;2023-02-22T10:58:56;93931.63;;;15.25;45.46
27643;BME280;15053;48.618;10.024;2023-02-22T11:04:05;93929.78;;;14.93;44.71
27643;BME280;15053;48.618;10.024;2023-02-22T11:06:36;93922.22;;;14.71;43.92
27643;BME280;15053;48.618;10.024;2023-02-22T11:09:18;93916.97;;;14.50;44.22
27643;BME280;15053;48.618;10.024;2023-02-22T11:11:49;93927.06;;;14.40;45.19
27643;BME280;15053;48.618;10.024;2023-02-22T11:14:27;93924.00;;;14.38;46.43
27643;BME280;15053;48.618;10.024;2023-02-22T11:16:55;93921.72;;;14.36;47.55
27643;BME280;15053;48.618;10.024;2023-02-22T11:19:27;93923.22;;;14.37;48.57
27643;BME280;15053;48.618;10.024;2023-02-22T11:24:31;93910.16;;;14.29;48.10
27643;BME280;15053;48.618;10.024;2023-02-22T11:27:32;93922.66;;;14.23;48.48
27643;BME280;15053;48.618;10.024;2023-02-22T11:32:44;93905.47;;;14.43;49.29
27643;BME280;15053;48.618;10.024;2023-02-22T11:35:37;93899.22;;;14.56;49.86
27643;BME280;15053;48.618;10.024;2023-02-22T11:38:26;93900.25;;;14.63;50.25
27643;BME280;15053;48.618;10.024;2023-02-22T11:43:43;93886.91;;;14.89;49.10
27643;BME280;15053;48.618;10.024;2023-02-22T11:46:13;93885.03;;;15.10;49.00
27643;BME280;15053;48.618;10.024;2023-02-22T11:48:55;93879.63;;;15.40;48.34
27643;BME280;15053;48.618;10.024;2023-02-22T11:51:43;93883.53;;;15.54;47.87
27643;BME280;15053;48.618;10.024;2023-02-22T11:54:18;93876.84;;;15.57;48.71
27643;BME280;15053;48.618;10.024;2023-02-22T11:57:33;93872.94;;;15.63;48.13
27643;BME280;15053;48.618;10.024;2023-02-22T12:00:26;93867.56;;;15.83;47.12
27643;BME280;15053;48.618;10.024;2023-02-22T12:03:27;93868.34;;;15.84;44.66
27643;BME280;15053;48.618;10.024;2023-02-22T12:08:35;93868.13;;;15.65;45.90
27643;BME280;15053;48.618;10.024;2023-02-22T12:19:21;93856.78;;;15.40;47.71
27643;BME280;15053;48.618;10.024;2023-02-22T12:22:00;93858.53;;;15.36;48.08
27643;BME280;15053;48.618;10.024;2023-02-22T12:25:21;93854.38;;;15.35;48.25
27643;BME280;15053;48.618;10.024;2023-02-22T12:27:53;93856.66;;;15.36;48.58
27643;BME280;15053;48.618;10.024;2023-02-22T12:30:25;93847.72;;;15.38;48.99
27643;BME280;15053;48.618;10.024;2023-02-22T12:32:57;93851.66;;;15.44;49.65
27643;BME280;15053;48.618;10.024;2023-02-22T12:35:35;93845.03;;;15.58;49.67
27643;BME280;15053;48.618;10.024;2023-02-22T12:38:13;93841.88;;;15.65;50.10
27643;BME280;15053;48.618;10.024;2023-02-22T12:41:10;93840.75;;;15.66;50.27
27643;BME280;15053;48.618;10.024;2023-02-22T12:43:45;93840.09;;;15.69;50.07
27643;BME280;15053;48.618;10.024;2023-02-22T12:46:20;93838.47;;;15.64;49.46
27643;BME280;15053;48.618;10.024;2023-02-22T12:51:43;93831.13;;;15.58;50.57
27643;BME280;15053;48.618;10.024;2023-02-22T12:54:27;93834.81;;;15.45;50.49
27643;BME280;15053;48.618;10.024;2023-02-22T12:57:08;93831.31;;;15.41;50.75
27643;BME280;15053;48.618;10.024;2023-02-22T12:59:45;93827.81;;;15.36;50.94
27643;BME280;15053;48.618;10.024;2023-02-22T13:02:33;93827.84;;;15.61;50.75
27643;BME280;15053;48.618;10.024;2023-02-22T13:05:02;93831.34;;;15.77;50.71
27643;BME280;15053;48.618;10.024;2023-02-22T13:10:32;93828.53;;;15.82;50.48
27643;BME280;15053;48.618;10.024;2023-02-22T13:13:18;93826.00;;;15.73;50.83
27643;BME280;15053;48.618;10.024;2023-02-22T13:15:55;93822.06;;;15.67;50.86
27643;BME280;15053;48.618;10.024;2023-02-22T13:18:32;93813.63;;;15.62;51.30
27643;BME280;15053;48.618;10.024;2023-02-22T13:21:05;93811.19;;;15.45;51.05
27643;BME280;15053;48.618;10.024;2023-02-22T13:23:59;93810.97;;;15.38;52.00
27643;BME280;15053;48.618;10.024;2023-02-22T13:26:43;93803.50;;;15.27;51.93
27643;BME280;15053;48.618;10.024;2023-02-22T13:29:23;93817.03;;;15.05;52.55
27643;BME280;15053;48.618;10.024;2023-02-22T13:32:21;93815.69;;;14.87;52.76
27643;BME280;15053;48.618;10.024;2023-02-22T13:46:15;93808.66;;;14.46;53.71
27643;BME280;15053;48.618;10.024;2023-02-22T13:49:19;93805.66;;;14.36;53.71
27643;BME280;15053;48.618;10.024;2023-02-22T13:52:14;93811.34;;;14.17;53.71
27643;BME280;15053;48.618;10.024;2023-02-22T13:54:48;93807.38;;;14.11;54.40
27643;BME280;15053;48.618;10.024;2023-02-22T13:57:25;93800.91;;;14.08;54.38
27643;BME280;15053;48.618;10.024;2023-02-22T14:03:47;93799.22;;;14.04;54.45
27643;BME280;15053;48.618;10.024;2023-02-22T14:05:51;93798.72;;;13.90;55.05
27643;BME280;15053;48.618;10.024;2023-02-22T14:10:54;93806.34;;;13.74;55.26
27643;BME280;15053;48.618;10.024;2023-02-22T14:13:22;93806.53;;;13.69;55.15
27643;BME280;15053;48.618;10.024;2023-02-22T14:18:44;93801.88;;;13.54;56.14
27643;BME280;15053;48.618;10.024;2023-02-22T14:23:41;93808.69;;;13.38;56.69
27643;BME280;15053;48.618;10.024;2023-02-22T14:26:27;93811.47;;;13.33;56.84
27643;BME280;15053;48.618;10.024;2023-02-22T14:31:55;93816.00;;;13.24;57.24
27643;BME280;15053;48.618;10.024;2023-02-22T14:34:50;93816.78;;;13.16;57.86
27643;BME280;15053;48.618;10.024;2023-02-22T14:37:23;93811.59;;;13.07;57.86
27643;BME280;15053;48.618;10.024;2023-02-22T14:47:27;93816.00;;;13.07;58.35